createdAt,value
2018-11-02T00:00:36.070Z,984.84
2018-11-02T00:01:36.011Z,984.84
2018-11-02T00:02:35.957Z,984.83
2018-11-02T00:03:35.898Z,984.83
2018-11-02T00:04:35.843Z,984.91
2018-11-02T00:05:35.783Z,984.94
2018-11-02T00:06:35.727Z,984.96
2018-11-02T00:07:35.671Z,984.98
2018-11-02T00:08:35.611Z,985.01
2018-11-02T00:09:35.557Z,985.05
2018-11-02T00:10:35.498Z,985.06
2018-11-02T00:11:35.450Z,985.10
2018-11-02T00:12:35.393Z,985.12
2018-11-02T00:13:35.330Z,985.15
2018-11-02T00:14:35.275Z,985.17
2018-11-02T00:15:35.213Z,985.19
2018-11-02T00:16:35.156Z,985.19
2018-11-02T00:17:35.100Z,985.21
2018-11-02T00:18:35.042Z,985.25
2018-11-02T00:19:34.985Z,985.23
2018-11-02T00:20:34.928Z,985.25
2018-11-02T00:21:34.871Z,985.24
2018-11-02T00:22:34.814Z,985.23
2018-11-02T00:23:34.757Z,985.24
2018-11-02T00:24:34.705Z,985.25
2018-11-02T00:25:34.643Z,985.26
2018-11-02T00:26:34.588Z,985.27
2018-11-02T00:27:34.530Z,985.28
2018-11-02T00:28:34.475Z,985.23
2018-11-02T00:29:41.551Z,985.24
2018-11-02T00:31:27.851Z,985.25
2018-11-02T00:32:27.137Z,985.27
2018-11-02T00:34:19.933Z,985.24
2018-11-02T00:35:19.861Z,985.20
2018-11-02T00:37:12.676Z,985.16
2018-11-02T00:38:12.585Z,985.16
2018-11-02T00:40:05.371Z,985.20
2018-11-02T00:41:05.331Z,985.18
2018-11-02T00:42:58.144Z,985.13
2018-11-02T00:43:58.095Z,985.16
2018-11-02T00:45:50.822Z,985.18
2018-11-02T00:46:50.763Z,985.19
2018-11-02T00:48:43.576Z,985.26
2018-11-02T00:49:43.485Z,985.26
2018-11-02T00:51:36.268Z,985.33
2018-11-02T00:52:36.206Z,985.33
2018-11-02T00:54:29.019Z,985.33
2018-11-02T00:55:28.928Z,985.29
2018-11-02T00:57:21.712Z,985.30
2018-11-02T00:58:21.651Z,985.26
2018-11-02T01:00:14.484Z,985.24
2018-11-02T01:01:14.374Z,985.21
2018-11-02T01:03:07.531Z,985.22
2018-11-02T01:04:07.096Z,985.22
2018-11-02T01:05:59.916Z,985.18
2018-11-02T01:06:59.826Z,985.19
2018-11-02T01:08:53.107Z,985.15
2018-11-02T01:09:53.046Z,985.14
2018-11-02T01:10:52.988Z,985.16
2018-11-02T01:11:52.929Z,985.09
2018-11-02T01:12:52.872Z,985.12
2018-11-02T01:13:52.816Z,985.13
2018-11-02T01:14:52.759Z,985.08
2018-11-02T01:15:52.732Z,985.13
2018-11-02T01:16:52.745Z,985.07
2018-11-02T01:17:52.592Z,985.07
2018-11-02T01:18:52.530Z,985.07
2018-11-02T01:19:52.474Z,985.07
2018-11-02T01:20:52.416Z,985.02
2018-11-02T01:21:52.360Z,985.01
2018-11-02T01:22:52.303Z,985.01
2018-11-02T01:23:52.252Z,985.03
2018-11-02T01:24:52.189Z,985.03
2018-11-02T01:25:52.132Z,985.01
2018-11-02T01:26:52.077Z,985.02
2018-11-02T01:27:52.019Z,985.01
2018-11-02T01:28:51.997Z,985.00
2018-11-02T01:29:51.904Z,984.95
2018-11-02T01:30:51.849Z,984.99
2018-11-02T01:31:51.790Z,984.98
2018-11-02T01:32:51.732Z,984.96
2018-11-02T01:33:51.675Z,984.98
2018-11-02T01:34:51.618Z,985.03
2018-11-02T01:35:51.563Z,985.03
2018-11-02T01:36:51.504Z,985.01
2018-11-02T01:37:51.448Z,985.00
2018-11-02T01:38:51.392Z,985.00
2018-11-02T01:39:51.335Z,985.07
2018-11-02T01:40:51.394Z,985.08
2018-11-02T01:41:51.221Z,985.13
2018-11-02T01:42:51.163Z,985.15
2018-11-02T01:43:51.106Z,985.12
2018-11-02T01:44:51.048Z,985.17
2018-11-02T01:45:50.991Z,985.16
2018-11-02T01:46:50.934Z,985.20
2018-11-02T01:47:50.879Z,985.19
2018-11-02T01:48:50.819Z,985.21
2018-11-02T01:49:50.763Z,985.23
2018-11-02T01:50:50.708Z,985.22
2018-11-02T01:51:50.649Z,985.26
2018-11-02T01:52:50.593Z,985.30
2018-11-02T01:53:50.535Z,985.30
2018-11-02T01:54:50.480Z,985.31
2018-11-02T01:55:50.424Z,985.26
2018-11-02T01:56:50.364Z,985.29
2018-11-02T01:57:50.306Z,985.30
2018-11-02T01:58:50.252Z,985.28
2018-11-02T01:59:50.193Z,985.31
2018-11-02T02:00:50.138Z,985.32
2018-11-02T02:01:50.078Z,985.31
2018-11-02T02:02:50.022Z,985.31
2018-11-02T02:03:49.967Z,985.31
2018-11-02T02:04:49.909Z,985.31
2018-11-02T02:05:49.851Z,985.32
2018-11-02T02:06:49.796Z,985.35
2018-11-02T02:07:49.738Z,985.41
2018-11-02T02:08:49.683Z,985.34
2018-11-02T02:09:49.622Z,985.31
2018-11-02T02:10:49.591Z,985.33
2018-11-02T02:11:49.512Z,985.41
2018-11-02T02:12:49.452Z,985.34
2018-11-02T02:13:49.395Z,985.34
2018-11-02T02:14:49.338Z,985.39
2018-11-02T02:15:49.280Z,985.32
2018-11-02T02:16:49.222Z,985.34
2018-11-02T02:17:49.167Z,985.28
2018-11-02T02:18:49.110Z,985.35
2018-11-02T02:19:49.055Z,985.30
2018-11-02T02:20:48.995Z,985.30
2018-11-02T02:21:48.939Z,985.20
2018-11-02T02:22:48.884Z,985.23
2018-11-02T02:23:48.825Z,985.22
2018-11-02T02:24:48.768Z,985.23
2018-11-02T02:25:48.711Z,985.24
2018-11-02T02:26:48.654Z,985.28
2018-11-02T02:27:48.598Z,985.28
2018-11-02T02:28:48.540Z,985.32
2018-11-02T02:29:48.484Z,985.30
2018-11-02T02:30:48.427Z,985.32
2018-11-02T02:31:48.368Z,985.31
2018-11-02T02:32:48.312Z,985.41
2018-11-02T02:33:48.257Z,985.37
2018-11-02T02:34:48.198Z,985.37
2018-11-02T02:35:48.140Z,985.37
2018-11-02T02:36:48.084Z,985.32
2018-11-02T02:37:48.026Z,985.29
2018-11-02T02:38:47.969Z,985.27
2018-11-02T02:39:47.915Z,985.32
2018-11-02T02:40:47.854Z,985.29
2018-11-02T02:41:47.797Z,985.30
2018-11-02T02:42:47.742Z,985.35
2018-11-02T02:43:47.686Z,985.36
2018-11-02T02:44:47.627Z,985.34
2018-11-02T02:45:47.572Z,985.39
2018-11-02T02:46:47.514Z,985.41
2018-11-02T02:47:47.455Z,985.42
2018-11-02T02:48:47.398Z,985.47
2018-11-02T02:49:47.345Z,985.47
2018-11-02T02:50:47.289Z,985.47
2018-11-02T02:51:47.241Z,985.49
2018-11-02T02:52:47.171Z,985.49
2018-11-02T02:53:47.115Z,985.49
2018-11-02T02:54:47.058Z,985.53
2018-11-02T02:55:47.000Z,985.52
2018-11-02T02:56:46.941Z,985.50
2018-11-02T02:57:46.886Z,985.53
2018-11-02T02:58:46.840Z,985.54
2018-11-02T02:59:46.775Z,985.51
2018-11-02T03:00:46.715Z,985.45
2018-11-02T03:01:46.656Z,985.53
2018-11-02T03:02:46.600Z,985.58
2018-11-02T03:03:46.543Z,985.54
2018-11-02T03:04:46.485Z,985.54
2018-11-02T03:05:46.428Z,985.56
2018-11-02T03:06:46.373Z,985.53
2018-11-02T03:07:46.315Z,985.61
2018-11-02T03:08:46.256Z,985.63
2018-11-02T03:09:46.201Z,985.70
2018-11-02T03:10:46.273Z,985.71
2018-11-02T03:11:46.087Z,985.67
2018-11-02T03:12:46.031Z,985.76
2018-11-02T03:13:45.972Z,985.79
2018-11-02T03:14:45.915Z,985.79
2018-11-02T03:15:45.858Z,985.79
2018-11-02T03:16:45.803Z,985.87
2018-11-02T03:17:45.743Z,985.85
2018-11-02T03:18:45.751Z,985.84
2018-11-02T03:19:45.638Z,985.89
2018-11-02T03:20:45.574Z,985.88
2018-11-02T03:21:45.515Z,985.92
2018-11-02T03:22:45.458Z,985.93
2018-11-02T03:23:45.402Z,985.94
2018-11-02T03:24:45.344Z,985.90
2018-11-02T03:25:45.288Z,985.82
2018-11-02T03:26:45.231Z,985.82
2018-11-02T03:27:45.186Z,985.81
2018-11-02T03:28:45.117Z,985.78
2018-11-02T03:29:45.059Z,985.76
2018-11-02T03:30:45.006Z,985.84
2018-11-02T03:31:44.949Z,985.84
2018-11-02T03:32:44.887Z,985.81
2018-11-02T03:33:44.831Z,985.84
2018-11-02T03:34:44.774Z,985.84
2018-11-02T03:35:44.716Z,985.83
2018-11-02T03:36:44.660Z,985.85
2018-11-02T03:37:44.603Z,985.88
2018-11-02T03:38:44.577Z,985.86
2018-11-02T03:39:44.487Z,985.85
2018-11-02T03:40:44.432Z,985.82
2018-11-02T03:41:44.373Z,985.81
2018-11-02T03:42:44.322Z,985.81
2018-11-02T03:43:44.259Z,985.79
2018-11-02T03:44:44.202Z,985.78
2018-11-02T03:45:46.743Z,985.74
2018-11-02T03:46:44.088Z,985.74
2018-11-02T03:47:44.032Z,985.77
2018-11-02T03:48:43.972Z,985.80
2018-11-02T03:49:43.916Z,985.82
2018-11-02T03:50:43.902Z,985.86
2018-11-02T03:51:43.803Z,985.89
2018-11-02T03:52:43.744Z,985.88
2018-11-02T03:53:43.747Z,985.95
2018-11-02T03:54:43.632Z,986.06
2018-11-02T03:55:43.574Z,986.07
2018-11-02T03:56:43.533Z,986.16
2018-11-02T03:57:43.461Z,986.25
2018-11-02T03:58:43.401Z,986.27
2018-11-02T03:59:43.349Z,986.27
2018-11-02T04:00:43.288Z,986.32
2018-11-02T04:01:43.231Z,986.33
2018-11-02T04:02:43.175Z,986.31
2018-11-02T04:03:43.120Z,986.28
2018-11-02T04:04:43.061Z,986.26
2018-11-02T04:05:43.003Z,986.26
2018-11-02T04:06:42.946Z,986.32
2018-11-02T04:07:42.891Z,986.33
2018-11-02T04:08:42.830Z,986.42
2018-11-02T04:09:42.801Z,986.45
2018-11-02T04:10:42.720Z,986.40
2018-11-02T04:11:42.661Z,986.40
2018-11-02T04:12:42.601Z,986.36
2018-11-02T04:13:42.545Z,986.39
2018-11-02T04:14:42.488Z,986.40
2018-11-02T04:15:42.431Z,986.47
2018-11-02T04:16:42.381Z,986.50
2018-11-02T04:17:42.319Z,986.49
2018-11-02T04:18:42.262Z,986.53
2018-11-02T04:19:42.204Z,986.53
2018-11-02T04:20:42.145Z,986.51
2018-11-02T04:21:42.088Z,986.54
2018-11-02T04:22:42.032Z,986.50
2018-11-02T04:23:41.975Z,986.54
2018-11-02T04:24:41.918Z,986.56
2018-11-02T04:25:41.858Z,986.61
2018-11-02T04:26:41.807Z,986.64
2018-11-02T04:27:41.746Z,986.64
2018-11-02T04:28:41.688Z,986.67
2018-11-02T04:29:41.631Z,986.65
2018-11-02T04:30:41.582Z,986.70
2018-11-02T04:31:41.518Z,986.74
2018-11-02T04:32:41.458Z,986.72
2018-11-02T04:33:41.403Z,986.66
2018-11-02T04:34:41.344Z,986.66
2018-11-02T04:35:41.290Z,986.64
2018-11-02T04:36:41.233Z,986.61
2018-11-02T04:37:41.174Z,986.61
2018-11-02T04:38:41.116Z,986.62
2018-11-02T04:39:41.060Z,986.65
2018-11-02T04:40:41.004Z,986.66
2018-11-02T04:41:40.947Z,986.65
2018-11-02T04:42:40.892Z,986.71
2018-11-02T04:43:40.831Z,986.69
2018-11-02T04:44:40.773Z,986.77
2018-11-02T04:45:40.719Z,986.74
2018-11-02T04:46:40.659Z,986.79
2018-11-02T04:47:40.601Z,986.79
2018-11-02T04:48:40.544Z,986.82
2018-11-02T04:49:40.487Z,986.84
2018-11-02T04:50:40.429Z,986.84
2018-11-02T04:51:40.372Z,986.83
2018-11-02T04:52:40.316Z,986.81
2018-11-02T04:53:40.262Z,986.77
2018-11-02T04:54:40.201Z,986.77
2018-11-02T04:55:40.143Z,986.77
2018-11-02T04:56:40.085Z,986.73
2018-11-02T04:57:40.041Z,986.70
2018-11-02T04:58:39.972Z,986.76
2018-11-02T04:59:39.916Z,986.76
2018-11-02T05:00:39.856Z,986.82
2018-11-02T05:01:39.800Z,986.84
2018-11-02T05:02:39.750Z,986.83
2018-11-02T05:03:39.685Z,986.89
2018-11-02T05:04:39.628Z,986.92
2018-11-02T05:05:39.571Z,986.91
2018-11-02T05:06:39.513Z,986.92
2018-11-02T05:07:39.456Z,986.91
2018-11-02T05:08:39.399Z,986.86
2018-11-02T05:09:39.381Z,986.88
2018-11-02T05:10:39.290Z,986.87
2018-11-02T05:11:39.230Z,986.91
2018-11-02T05:12:39.170Z,986.92
2018-11-02T05:13:39.113Z,986.92
2018-11-02T05:14:39.056Z,986.99
2018-11-02T05:15:39.000Z,986.99
2018-11-02T05:16:38.940Z,987.06
2018-11-02T05:17:38.889Z,987.02
2018-11-02T05:18:38.835Z,987.03
2018-11-02T05:19:38.769Z,987.04
2018-11-02T05:20:38.714Z,987.01
2018-11-02T05:21:38.654Z,987.05
2018-11-02T05:22:38.597Z,987.14
2018-11-02T05:23:38.540Z,987.13
2018-11-02T05:24:38.483Z,987.11
2018-11-02T05:25:38.425Z,987.12
2018-11-02T05:26:38.370Z,987.13
2018-11-02T05:27:38.311Z,987.16
2018-11-02T05:28:38.253Z,987.14
2018-11-02T05:29:38.197Z,987.19
2018-11-02T05:30:38.141Z,987.20
2018-11-02T05:31:38.082Z,987.18
2018-11-02T05:32:38.024Z,987.17
2018-11-02T05:33:37.971Z,987.20
2018-11-02T05:34:37.910Z,987.14
2018-11-02T05:35:37.853Z,987.15
2018-11-02T05:36:37.799Z,987.17
2018-11-02T05:37:37.743Z,987.11
2018-11-02T05:38:37.690Z,987.12
2018-11-02T05:39:37.659Z,987.12
2018-11-02T05:40:37.591Z,987.16
2018-11-02T05:41:37.508Z,987.21
2018-11-02T05:42:37.452Z,987.19
2018-11-02T05:43:37.396Z,987.22
2018-11-02T05:44:37.337Z,987.18
2018-11-02T05:45:37.279Z,987.16
2018-11-02T05:46:37.227Z,987.17
2018-11-02T05:47:37.176Z,987.17
2018-11-02T05:48:37.109Z,987.16
2018-11-02T05:49:37.050Z,987.15
2018-11-02T05:50:36.993Z,987.19
2018-11-02T05:51:36.939Z,987.21
2018-11-02T05:52:36.877Z,987.19
2018-11-02T05:53:36.820Z,987.16
2018-11-02T05:54:36.764Z,987.20
2018-11-02T05:55:36.706Z,987.15
2018-11-02T05:56:36.650Z,987.20
2018-11-02T05:57:36.591Z,987.24
2018-11-02T05:58:36.534Z,987.25
2018-11-02T05:59:36.477Z,987.24
2018-11-02T06:00:36.419Z,987.29
2018-11-02T06:01:36.456Z,987.32
2018-11-02T06:02:36.306Z,987.34
2018-11-02T06:03:36.248Z,987.39
2018-11-02T06:04:36.195Z,987.35
2018-11-02T06:05:36.134Z,987.34
2018-11-02T06:06:36.077Z,987.36
2018-11-02T06:07:36.079Z,987.42
2018-11-02T06:08:35.962Z,987.43
2018-11-02T06:09:35.908Z,987.45
2018-11-02T06:10:35.846Z,987.49
2018-11-02T06:11:35.788Z,987.56
2018-11-02T06:12:35.730Z,987.54
2018-11-02T06:13:35.857Z,987.58
2018-11-02T06:14:35.618Z,987.58
2018-11-02T06:15:35.561Z,987.55
2018-11-02T06:16:35.548Z,987.59
2018-11-02T06:17:35.444Z,987.59
2018-11-02T06:18:35.386Z,987.58
2018-11-02T06:19:35.329Z,987.55
2018-11-02T06:20:35.301Z,987.57
2018-11-02T06:21:35.214Z,987.52
2018-11-02T06:22:35.156Z,987.60
2018-11-02T06:23:35.099Z,987.60
2018-11-02T06:24:35.042Z,987.61
2018-11-02T06:25:34.985Z,987.62
2018-11-02T06:26:34.928Z,987.71
2018-11-02T06:27:34.871Z,987.67
2018-11-02T06:28:34.817Z,987.74
2018-11-02T06:29:34.755Z,987.79
2018-11-02T06:30:34.729Z,987.73
2018-11-02T06:31:34.645Z,987.76
2018-11-02T06:32:34.745Z,987.72
2018-11-02T06:33:34.524Z,987.74
2018-11-02T06:34:34.467Z,987.75
2018-11-02T06:35:34.414Z,987.84
2018-11-02T06:36:34.354Z,987.85
2018-11-02T06:37:34.294Z,987.87
2018-11-02T06:38:34.300Z,987.92
2018-11-02T06:39:34.185Z,987.95
2018-11-02T06:40:34.178Z,987.94
2018-11-02T06:41:48.771Z,987.98
2018-11-02T06:42:34.008Z,988.04
2018-11-02T06:43:33.952Z,988.02
2018-11-02T06:44:33.894Z,988.02
2018-11-02T06:45:33.836Z,987.99
2018-11-02T06:46:33.777Z,987.98
2018-11-02T06:47:33.720Z,988.03
2018-11-02T06:48:33.662Z,988.02
2018-11-02T06:49:33.607Z,988.05
2018-11-02T06:50:33.550Z,988.06
2018-11-02T06:51:33.519Z,988.07
2018-11-02T06:52:33.433Z,988.07
2018-11-02T06:53:33.376Z,987.99
2018-11-02T06:54:33.318Z,987.98
2018-11-02T06:55:33.259Z,988.02
2018-11-02T06:56:33.204Z,988.05
2018-11-02T06:57:33.146Z,988.08
2018-11-02T06:58:33.089Z,988.14
2018-11-02T06:59:33.174Z,988.19
2018-11-02T07:00:33.040Z,988.22
2018-11-02T07:01:32.916Z,988.22
2018-11-02T07:02:32.858Z,988.26
2018-11-02T07:03:32.817Z,988.24
2018-11-02T07:04:32.745Z,988.32
2018-11-02T07:05:32.685Z,988.29
2018-11-02T07:06:32.629Z,988.28
2018-11-02T07:07:32.727Z,988.25
2018-11-02T07:08:32.632Z,988.28
2018-11-02T07:09:32.456Z,988.25
2018-11-02T07:10:32.399Z,988.25
2018-11-02T07:11:32.341Z,988.30
2018-11-02T07:12:32.283Z,988.36
2018-11-02T07:13:32.228Z,988.36
2018-11-02T07:14:32.169Z,988.33
2018-11-02T07:15:32.113Z,988.34
2018-11-02T07:16:32.052Z,988.35
2018-11-02T07:17:31.997Z,988.42
2018-11-02T07:18:31.937Z,988.44
2018-11-02T07:19:31.883Z,988.42
2018-11-02T07:20:31.824Z,988.48
2018-11-02T07:21:31.769Z,988.45
2018-11-02T07:22:31.708Z,988.48
2018-11-02T07:23:31.650Z,988.47
2018-11-02T07:24:31.592Z,988.51
2018-11-02T07:25:31.539Z,988.50
2018-11-02T07:26:31.478Z,988.56
2018-11-02T07:27:31.434Z,988.55
2018-11-02T07:28:31.364Z,988.56
2018-11-02T07:29:31.306Z,988.55
2018-11-02T07:30:31.248Z,988.59
2018-11-02T07:31:31.190Z,988.69
2018-11-02T07:32:31.131Z,988.71
2018-11-02T07:33:31.088Z,988.76
2018-11-02T07:34:31.095Z,988.75
2018-11-02T07:35:30.965Z,988.75
2018-11-02T07:36:30.902Z,988.81
2018-11-02T07:37:30.845Z,988.75
2018-11-02T07:38:30.790Z,988.72
2018-11-02T07:39:30.731Z,988.71
2018-11-02T07:40:30.676Z,988.66
2018-11-02T07:41:30.616Z,988.66
2018-11-02T07:42:30.560Z,988.64
2018-11-02T07:43:30.502Z,988.67
2018-11-02T07:44:30.458Z,988.66
2018-11-02T07:45:30.386Z,988.63
2018-11-02T07:46:30.328Z,988.58
2018-11-02T07:47:30.294Z,988.63
2018-11-02T07:48:30.214Z,988.60
2018-11-02T07:49:30.189Z,988.62
2018-11-02T07:50:30.103Z,988.62
2018-11-02T07:51:30.040Z,988.65
2018-11-02T07:52:30.023Z,988.63
2018-11-02T07:53:29.925Z,988.63
2018-11-02T07:54:29.869Z,988.62
2018-11-02T07:55:29.938Z,988.60
2018-11-02T07:56:29.757Z,988.66
2018-11-02T07:57:29.698Z,988.70
2018-11-02T07:58:29.639Z,988.75
2018-11-02T07:59:29.591Z,988.71
2018-11-02T08:00:29.525Z,988.72
2018-11-02T08:01:29.465Z,988.77
2018-11-02T08:02:29.409Z,988.80
2018-11-02T08:03:29.352Z,988.79
2018-11-02T08:04:29.293Z,988.81
2018-11-02T08:05:29.236Z,988.80
2018-11-02T08:06:29.214Z,988.81
2018-11-02T08:07:29.122Z,988.80
2018-11-02T08:08:29.065Z,988.77
2018-11-02T08:09:29.005Z,988.83
2018-11-02T08:10:28.947Z,988.84
2018-11-02T08:11:29.060Z,988.85
2018-11-02T08:12:28.836Z,988.84
2018-11-02T08:13:28.775Z,988.90
2018-11-02T08:14:28.718Z,988.96
2018-11-02T08:15:28.660Z,988.98
2018-11-02T08:16:28.601Z,989.01
2018-11-02T08:17:28.560Z,988.98
2018-11-02T08:18:28.491Z,988.97
2018-11-02T08:19:28.431Z,988.99
2018-11-02T08:20:28.371Z,989.02
2018-11-02T08:21:28.314Z,989.04
2018-11-02T08:22:28.257Z,989.07
2018-11-02T08:23:28.199Z,989.06
2018-11-02T08:24:28.205Z,989.09
2018-11-02T08:25:28.087Z,989.08
2018-11-02T08:26:28.030Z,989.12
2018-11-02T08:27:27.971Z,989.13
2018-11-02T08:28:27.914Z,989.15
2018-11-02T08:29:27.860Z,989.13
2018-11-02T08:30:27.798Z,989.13
2018-11-02T08:31:27.744Z,989.16
2018-11-02T08:32:27.682Z,989.17
2018-11-02T08:33:27.625Z,989.09
2018-11-02T08:34:27.567Z,989.11
2018-11-02T08:35:27.512Z,989.10
2018-11-02T08:36:27.451Z,989.10
2018-11-02T08:37:27.393Z,989.10
2018-11-02T08:38:27.337Z,989.08
2018-11-02T08:39:27.280Z,989.08
2018-11-02T08:40:27.223Z,989.05
2018-11-02T08:41:27.166Z,989.08
2018-11-02T08:42:27.107Z,989.10
2018-11-02T08:43:27.050Z,989.06
2018-11-02T08:44:26.994Z,989.07
2018-11-02T08:45:26.935Z,989.11
2018-11-02T08:46:26.886Z,989.14
2018-11-02T08:47:26.821Z,989.14
2018-11-02T08:48:26.762Z,989.21
2018-11-02T08:49:26.714Z,989.17
2018-11-02T08:50:26.650Z,989.17
2018-11-02T08:51:26.591Z,989.18
2018-11-02T08:52:26.591Z,989.20
2018-11-02T08:53:26.475Z,989.21
2018-11-02T08:54:26.418Z,989.14
2018-11-02T08:55:26.361Z,989.15
2018-11-02T08:56:26.302Z,989.14
2018-11-02T08:57:26.245Z,989.16
2018-11-02T08:58:26.315Z,989.11
2018-11-02T08:59:26.253Z,989.19
2018-11-02T09:00:26.073Z,989.18
2018-11-02T09:01:26.016Z,989.18
2018-11-02T09:02:25.958Z,989.23
2018-11-02T09:03:25.902Z,989.19
2018-11-02T09:04:25.858Z,989.22
2018-11-02T09:05:25.787Z,989.18
2018-11-02T09:06:25.730Z,989.17
2018-11-02T09:07:25.672Z,989.16
2018-11-02T09:08:25.615Z,989.15
2018-11-02T09:09:25.556Z,989.17
2018-11-02T09:10:25.500Z,989.12
2018-11-02T09:11:25.449Z,989.13
2018-11-02T09:12:25.387Z,989.16
2018-11-02T09:13:25.327Z,989.14
2018-11-02T09:14:25.272Z,989.17
2018-11-02T09:15:25.213Z,989.12
2018-11-02T09:16:25.155Z,989.13
2018-11-02T09:17:25.130Z,989.20
2018-11-02T09:18:25.079Z,989.18
2018-11-02T09:19:25.046Z,989.21
2018-11-02T09:20:24.925Z,989.18
2018-11-02T09:21:24.880Z,989.13
2018-11-02T09:22:24.829Z,989.13
2018-11-02T09:23:24.779Z,989.13
2018-11-02T09:24:24.699Z,989.11
2018-11-02T09:25:24.643Z,989.13
2018-11-02T09:26:24.583Z,989.19
2018-11-02T09:27:24.603Z,989.18
2018-11-02T09:28:24.466Z,989.14
2018-11-02T09:29:24.417Z,989.15
2018-11-02T09:30:24.352Z,989.16
2018-11-02T09:31:24.366Z,989.14
2018-11-02T09:32:24.334Z,989.17
2018-11-02T09:33:24.179Z,989.19
2018-11-02T09:34:24.122Z,989.20
2018-11-02T09:35:24.068Z,989.20
2018-11-02T09:36:24.010Z,989.17
2018-11-02T09:37:23.950Z,989.18
2018-11-02T09:38:23.897Z,989.22
2018-11-02T09:39:23.835Z,989.16
2018-11-02T09:40:23.887Z,989.12
2018-11-02T09:41:23.720Z,989.13
2018-11-02T09:42:23.685Z,989.15
2018-11-02T09:43:23.606Z,989.13
2018-11-02T09:44:23.548Z,989.14
2018-11-02T09:45:23.495Z,989.12
2018-11-02T09:46:23.434Z,989.15
2018-11-02T09:47:23.376Z,989.15
2018-11-02T09:48:23.318Z,989.18
2018-11-02T09:49:23.263Z,989.21
2018-11-02T09:50:23.203Z,989.22
2018-11-02T09:51:23.213Z,989.21
2018-11-02T09:52:23.091Z,989.22
2018-11-02T09:53:23.034Z,989.20
2018-11-02T09:54:22.979Z,989.22
2018-11-02T09:55:22.918Z,989.20
2018-11-02T09:56:22.861Z,989.18
2018-11-02T09:57:22.803Z,989.20
2018-11-02T09:58:22.745Z,989.24
2018-11-02T09:59:22.687Z,989.19
2018-11-02T10:00:22.629Z,989.19
2018-11-02T10:01:22.574Z,989.21
2018-11-02T10:02:22.517Z,989.24
2018-11-02T10:03:22.459Z,989.22
2018-11-02T10:04:22.402Z,989.20
2018-11-02T10:05:22.345Z,989.19
2018-11-02T10:06:22.291Z,989.23
2018-11-02T10:07:22.245Z,989.21
2018-11-02T10:08:22.237Z,989.22
2018-11-02T10:09:22.237Z,989.19
2018-11-02T10:10:22.059Z,989.28
2018-11-02T10:11:22.001Z,989.22
2018-11-02T10:12:21.942Z,989.25
2018-11-02T10:13:21.885Z,989.25
2018-11-02T10:14:21.829Z,989.24
2018-11-02T10:15:21.770Z,989.26
2018-11-02T10:16:21.715Z,989.26
2018-11-02T10:17:21.658Z,989.24
2018-11-02T10:18:21.603Z,989.26
2018-11-02T10:19:21.547Z,989.29
2018-11-02T10:20:21.528Z,989.24
2018-11-02T10:21:21.427Z,989.24
2018-11-02T10:22:21.371Z,989.22
2018-11-02T10:23:21.314Z,989.23
2018-11-02T10:24:21.255Z,989.16
2018-11-02T10:25:21.198Z,989.24
2018-11-02T10:26:21.141Z,989.21
2018-11-02T10:27:21.089Z,989.20
2018-11-02T10:28:21.067Z,989.21
2018-11-02T10:29:20.970Z,989.22
2018-11-02T10:30:20.911Z,989.20
2018-11-02T10:31:20.853Z,989.22
2018-11-02T10:32:20.797Z,989.21
2018-11-02T10:33:20.739Z,989.16
2018-11-02T10:34:20.684Z,989.16
2018-11-02T10:35:20.646Z,989.17
2018-11-02T10:36:20.572Z,989.11
2018-11-02T10:37:20.511Z,989.09
2018-11-02T10:38:20.454Z,989.07
2018-11-02T10:39:20.450Z,989.02
2018-11-02T10:40:20.343Z,989.00
2018-11-02T10:41:20.285Z,988.98
2018-11-02T10:42:20.227Z,988.94
2018-11-02T10:43:20.167Z,988.96
2018-11-02T10:44:20.161Z,988.93
2018-11-02T10:45:20.059Z,988.90
2018-11-02T10:46:19.996Z,988.84
2018-11-02T10:47:19.938Z,988.82
2018-11-02T10:48:19.879Z,988.84
2018-11-02T10:49:19.869Z,988.83
2018-11-02T10:50:19.770Z,988.81
2018-11-02T10:51:19.828Z,988.93
2018-11-02T10:52:19.651Z,988.93
2018-11-02T10:53:19.595Z,988.95
2018-11-02T10:54:19.561Z,988.87
2018-11-02T10:55:19.480Z,988.93
2018-11-02T10:56:19.424Z,988.96
2018-11-02T10:57:19.367Z,989.00
2018-11-02T10:58:19.307Z,989.05
2018-11-02T10:59:19.256Z,989.05
2018-11-02T11:00:19.193Z,989.06
2018-11-02T11:01:19.186Z,989.10
2018-11-02T11:02:19.080Z,989.11
2018-11-02T11:03:19.022Z,989.13
2018-11-02T11:04:18.964Z,989.13
2018-11-02T11:05:18.912Z,989.16
2018-11-02T11:06:18.851Z,989.14
2018-11-02T11:07:18.794Z,989.19
2018-11-02T11:08:18.739Z,989.17
2018-11-02T11:09:18.678Z,989.14
2018-11-02T11:10:18.622Z,989.16
2018-11-02T11:11:18.599Z,989.14
2018-11-02T11:12:18.745Z,989.14
2018-11-02T11:13:18.786Z,989.17
2018-11-02T11:14:18.393Z,989.20
2018-11-02T11:15:18.336Z,989.20
2018-11-02T11:16:18.279Z,989.23
2018-11-02T11:17:18.224Z,989.19
2018-11-02T11:18:18.170Z,989.22
2018-11-02T11:19:18.108Z,989.17
2018-11-02T11:20:18.054Z,989.13
2018-11-02T11:21:18.075Z,989.07
2018-11-02T11:22:17.937Z,989.02
2018-11-02T11:23:17.881Z,988.99
2018-11-02T11:24:17.823Z,988.93
2018-11-02T11:25:17.784Z,988.92
2018-11-02T11:26:17.710Z,988.97
2018-11-02T11:27:17.654Z,989.01
2018-11-02T11:28:17.599Z,989.03
2018-11-02T11:29:17.579Z,989.10
2018-11-02T11:30:17.480Z,989.12
2018-11-02T11:31:17.426Z,989.14
2018-11-02T11:32:17.370Z,989.15
2018-11-02T11:33:17.317Z,989.17
2018-11-02T11:34:17.252Z,989.16
2018-11-02T11:35:17.198Z,989.10
2018-11-02T11:36:17.138Z,989.11
2018-11-02T11:37:17.083Z,989.13
2018-11-02T11:38:17.026Z,989.14
2018-11-02T11:39:16.969Z,989.11
2018-11-02T11:40:16.911Z,989.10
2018-11-02T11:41:16.854Z,989.12
2018-11-02T11:42:16.802Z,989.07
2018-11-02T11:43:16.740Z,989.08
2018-11-02T11:44:16.684Z,989.02
2018-11-02T11:45:16.626Z,989.00
2018-11-02T11:46:16.569Z,989.02
2018-11-02T11:47:16.513Z,988.95
2018-11-02T11:48:16.456Z,989.00
2018-11-02T11:49:16.483Z,988.95
2018-11-02T11:50:16.342Z,989.01
2018-11-02T11:51:16.296Z,988.97
2018-11-02T11:52:16.228Z,989.02
2018-11-02T11:53:16.171Z,989.06
2018-11-02T11:54:16.136Z,989.14
2018-11-02T11:55:16.060Z,989.16
2018-11-02T11:56:16.000Z,989.15
2018-11-02T11:57:15.947Z,989.22
2018-11-02T11:58:15.892Z,989.23
2018-11-02T11:59:15.831Z,989.25
2018-11-02T12:00:15.775Z,989.30
2018-11-02T12:01:15.720Z,989.30
2018-11-02T12:02:15.691Z,989.29
2018-11-02T12:03:15.603Z,989.31
2018-11-02T12:04:15.558Z,989.24
2018-11-02T12:05:15.495Z,989.22
2018-11-02T12:06:15.431Z,989.27
2018-11-02T12:07:15.376Z,989.27
2018-11-02T12:08:15.317Z,989.26
2018-11-02T12:09:15.289Z,989.27
2018-11-02T12:10:15.273Z,989.29
2018-11-02T12:11:15.147Z,989.32
2018-11-02T12:12:15.089Z,989.33
2018-11-02T12:13:15.039Z,989.31
2018-11-02T12:14:14.982Z,989.33
2018-11-02T12:15:14.922Z,989.31
2018-11-02T12:16:14.863Z,989.33
2018-11-02T12:17:14.810Z,989.31
2018-11-02T12:18:14.753Z,989.25
2018-11-02T12:19:14.693Z,989.25
2018-11-02T12:20:14.634Z,989.16
2018-11-02T12:21:14.582Z,989.13
2018-11-02T12:22:14.521Z,989.17
2018-11-02T12:23:14.465Z,989.18
2018-11-02T12:24:14.408Z,989.14
2018-11-02T12:25:14.352Z,989.22
2018-11-02T12:26:14.295Z,989.23
2018-11-02T12:27:14.239Z,989.20
2018-11-02T12:28:14.191Z,989.26
2018-11-02T12:29:14.126Z,989.30
2018-11-02T12:30:14.072Z,989.29
2018-11-02T12:31:14.016Z,989.33
2018-11-02T12:32:13.953Z,989.35
2018-11-02T12:33:13.896Z,989.40
2018-11-02T12:34:13.841Z,989.44
2018-11-02T12:35:13.783Z,989.47
2018-11-02T12:36:13.725Z,989.52
2018-11-02T12:37:13.838Z,989.49
2018-11-02T12:38:13.613Z,989.48
2018-11-02T12:39:13.555Z,989.41
2018-11-02T12:40:13.498Z,989.36